Ellis, Kansas
Current Conditions -  °F | °C
As of 10:15 PM on Friday 31 Oct 2014 (Local Time) from KHYS Reporting Station
Clear Clear  
Wind Chill: 23°   Ceiling: Unl
Heat Index: 30°   Visibility: 10mi
Dew Point: 16°   Wind: 7mph
Humidity: 55%   Direction: 140°SE
Pressure: 30.39"   Gusts: NA
Location:  38.94°N, 99.56°W
Report Text: KHYS 010315Z AUTO 14006KT 10SM CLR M01/M09 A3039 RMK AO1
Loading
Personal Weather Stations






























Interactive Weather Map
Tropical Storm Tracking
New forecast layout! Learn more

10-Day Weather Forecast

Advertisements
Track Severe Weather on mobile